Time;durP1;ratioP1;P1;durP2;ratioP2;P2;SDS_P1;SDS_P2;PMS_P1;PMS_P2;Temp;Humidity;BMP_temperature;BMP_pressure;BME280_temperature;BME280_humidity;BME280_pressure;Samples;Min_cycle;Max_cycle;Signal;HPM_P1;HPM_P2
2021/08/03 00:01:47;;;;;;;12.03;6.60;;;14.90;99.80;;;;;;6089355;23;20445;-87
2021/08/03 00:04:19;;;;;;;9.60;6.07;;;14.90;99.80;;;;;;6098832;23;20436;-87
2021/08/03 00:06:51;;;;;;;9.10;5.90;;;14.90;99.80;;;;;;6107853;23;20502;-87
2021/08/03 00:09:20;;;;;;;7.70;6.10;;;14.90;99.80;;;;;;6105664;23;20981;-87
2021/08/03 00:11:48;;;;;;;7.60;5.00;;;14.90;99.80;;;;;;6109412;23;20523;-87
2021/08/03 00:14:17;;;;;;;8.20;6.37;;;14.90;99.80;;;;;;6106127;23;20444;-87
2021/08/03 00:16:47;;;;;;;11.93;6.97;;;14.90;99.80;;;;;;6090205;23;21078;-87
2021/08/03 00:19:17;;;;;;;9.30;6.17;;;14.90;99.80;;;;;;6113919;23;21099;-86
2021/08/03 00:21:46;;;;;;;12.83;7.60;;;14.90;99.80;;;;;;6118795;23;20443;-87
2021/08/03 00:24:14;;;;;;;8.00;5.43;;;14.90;99.80;;;;;;6116399;23;20445;-87
2021/08/03 00:26:42;;;;;;;8.13;6.20;;;14.90;99.80;;;;;;6107047;23;20444;-87
2021/08/03 00:29:14;;;;;;;9.60;6.17;;;14.90;99.80;;;;;;6111307;23;20436;-87
2021/08/03 00:31:43;;;;;;;6.63;6.00;;;14.90;99.80;;;;;;6103888;23;20938;-87
2021/08/03 00:34:11;;;;;;;6.50;5.83;;;14.90;99.80;;;;;;6115722;23;21250;-86
2021/08/03 00:36:42;;;;;;;6.77;5.50;;;14.90;99.80;;;;;;6104399;23;20454;-87
2021/08/03 00:39:10;;;;;;;8.27;6.53;;;14.80;99.80;;;;;;6106519;23;20436;-87
2021/08/03 00:41:41;;;;;;;11.17;6.63;;;14.70;99.80;;;;;;6107732;23;20426;-87
2021/08/03 00:44:09;;;;;;;9.10;6.93;;;14.80;99.80;;;;;;6105498;23;20446;-87
2021/08/03 00:46:38;;;;;;;8.33;6.80;;;14.70;99.80;;;;;;6109817;23;20546;-87
2021/08/03 00:49:06;;;;;;;8.37;6.27;;;14.70;99.80;;;;;;6116284;23;20487;-87
2021/08/03 00:51:49;;;;;;;12.33;6.53;;;14.70;99.80;;;;;;6118021;23;20438;-87
2021/08/03 00:54:17;;;;;;;7.20;6.30;;;14.70;99.80;;;;;;6117359;23;20762;-87
2021/08/03 00:56:46;;;;;;;8.83;6.70;;;14.70;99.80;;;;;;6107818;23;20438;-87
2021/08/03 00:59:14;;;;;;;12.70;7.43;;;14.70;99.80;;;;;;6098134;23;20444;-87
2021/08/03 01:01:42;;;;;;;13.27;8.27;;;14.70;99.80;;;;;;6091658;23;20438;-87
2021/08/03 01:04:11;;;;;;;11.87;7.30;;;14.70;99.80;;;;;;6108779;23;20443;-87
2021/08/03 01:06:46;;;;;;;11.93;7.30;;;14.70;99.80;;;;;;6116054;23;20787;-87
2021/08/03 01:09:22;;;;;;;11.30;7.10;;;14.70;99.80;;;;;;6104040;23;20443;-87
2021/08/03 01:11:55;;;;;;;11.53;7.00;;;14.70;99.80;;;;;;6109561;23;20446;-87
2021/08/03 01:14:28;;;;;;;12.20;7.60;;;14.70;99.80;;;;;;6093844;23;20874;-86
2021/08/03 01:17:02;;;;;;;11.27;7.10;;;14.70;99.80;;;;;;6110621;23;20499;-87
2021/08/03 01:19:45;;;;;;;9.90;7.33;;;14.70;99.80;;;;;;6103181;23;20767;-87
2021/08/03 01:22:36;;;;;;;9.90;7.50;;;14.70;99.80;;;;;;6111374;23;20483;-87
2021/08/03 01:25:16;;;;;;;10.50;7.30;;;14.70;99.80;;;;;;6103705;23;20437;-86
2021/08/03 01:28:16;;;;;;;8.73;7.43;;;14.70;99.80;;;;;;6112835;23;20449;-87
2021/08/03 01:30:50;;;;;;;11.80;7.57;;;14.70;99.80;;;;;;6109614;23;20947;-87
2021/08/03 01:33:23;;;;;;;13.30;8.20;;;14.70;99.80;;;;;;6114123;23;20432;-86
2021/08/03 01:35:52;;;;;;;11.30;7.77;;;14.60;99.80;;;;;;6117595;23;20448;-87
2021/08/03 01:38:23;;;;;;;15.03;7.43;;;14.60;99.80;;;;;;6117711;23;20438;-86
2021/08/03 01:40:53;;;;;;;10.57;7.27;;;14.60;99.80;;;;;;6098720;23;20439;-86
2021/08/03 01:43:23;;;;;;;11.67;8.50;;;14.60;99.80;;;;;;6111461;23;20441;-86
2021/08/03 01:45:54;;;;;;;17.50;8.67;;;14.60;99.80;;;;;;6107391;23;20471;-84
2021/08/03 01:48:24;;;;;;;11.33;7.47;;;14.60;99.80;;;;;;6111904;23;20457;-86
2021/08/03 01:50:55;;;;;;;12.20;6.60;;;14.60;99.80;;;;;;6106918;23;20440;-84
2021/08/03 01:53:25;;;;;;;10.40;7.87;;;14.60;99.80;;;;;;6106467;23;20758;-84
2021/08/03 01:55:55;;;;;;;12.60;7.57;;;14.60;99.80;;;;;;6109516;23;20450;-85
2021/08/03 01:58:27;;;;;;;10.80;8.20;;;14.60;99.80;;;;;;6110512;23;20462;-85
2021/08/03 02:00:56;;;;;;;11.60;7.50;;;14.60;99.80;;;;;;6075593;23;20773;-83
2021/08/03 02:03:26;;;;;;;14.93;7.87;;;14.60;99.80;;;;;;6122928;23;20439;-84
2021/08/03 02:05:56;;;;;;;8.97;7.47;;;14.60;99.80;;;;;;6122944;23;20772;-83
2021/08/03 02:08:25;;;;;;;11.33;8.07;;;14.60;99.80;;;;;;6122861;23;20409;-85
2021/08/03 02:10:53;;;;;;;13.80;8.30;;;14.60;99.80;;;;;;6123153;23;20406;-84
2021/08/03 02:13:23;;;;;;;11.67;7.53;;;14.60;99.80;;;;;;6122671;23;20442;-84
2021/08/03 02:15:52;;;;;;;15.93;7.40;;;14.60;99.80;;;;;;6122208;23;20409;-84
2021/08/03 02:18:20;;;;;;;9.20;6.73;;;14.60;99.80;;;;;;6123344;23;20400;-83
2021/08/03 02:20:48;;;;;;;8.03;6.70;;;14.60;99.80;;;;;;6121201;23;20908;-83
2021/08/03 02:23:16;;;;;;;8.47;6.47;;;14.70;99.80;;;;;;6122581;23;20447;-83
2021/08/03 02:25:44;;;;;;;10.73;6.90;;;14.70;99.80;;;;;;6123096;23;20399;-85
2021/08/03 02:28:12;;;;;;;11.40;6.90;;;14.70;99.80;;;;;;6122829;23;20507;-84
2021/08/03 02:30:43;;;;;;;9.03;7.33;;;14.70;99.80;;;;;;6122708;23;20447;-85
2021/08/03 02:33:20;;;;;;;10.60;7.53;;;14.70;99.80;;;;;;6122671;23;20388;-84
2021/08/03 02:35:55;;;;;;;9.67;7.13;;;14.80;99.80;;;;;;6076669;23;20947;-84
2021/08/03 02:38:26;;;;;;;9.83;6.80;;;14.80;99.80;;;;;;6102542;23;20431;-84
2021/08/03 02:40:55;;;;;;;13.93;7.50;;;14.80;99.80;;;;;;6105161;23;20483;-84
2021/08/03 02:43:25;;;;;;;9.03;6.40;;;14.80;99.80;;;;;;6105038;23;20447;-84
2021/08/03 02:45:57;;;;;;;11.03;6.90;;;14.80;99.80;;;;;;6099195;23;20442;-84
2021/08/03 02:48:27;;;;;;;8.97;6.93;;;14.80;99.80;;;;;;6114937;23;20499;-84
2021/08/03 02:50:58;;;;;;;9.67;7.20;;;14.80;99.80;;;;;;6115568;23;20461;-84
2021/08/03 02:53:30;;;;;;;9.93;7.30;;;14.80;99.80;;;;;;6108912;23;20450;-84
2021/08/03 02:56:01;;;;;;;9.00;6.73;;;14.70;99.80;;;;;;6095843;23;20439;-84
2021/08/03 02:58:35;;;;;;;9.50;7.50;;;14.80;99.80;;;;;;6092668;23;20443;-84
2021/08/03 03:01:05;;;;;;;11.43;7.77;;;14.70;99.80;;;;;;6087000;23;20896;-84
2021/08/03 03:03:39;;;;;;;7.93;6.50;;;14.70;99.80;;;;;;6110832;23;20443;-84
2021/08/03 03:06:10;;;;;;;11.00;6.90;;;14.70;99.80;;;;;;6117555;23;20433;-84
2021/08/03 03:08:41;;;;;;;14.50;7.60;;;14.70;99.80;;;;;;6115745;23;20431;-84
2021/08/03 03:11:11;;;;;;;8.70;6.87;;;14.60;99.80;;;;;;6113988;23;20452;-83
2021/08/03 03:13:44;;;;;;;11.53;7.67;;;14.60;99.80;;;;;;6111336;23;20457;-84
2021/08/03 03:16:13;;;;;;;11.27;7.80;;;14.60;99.80;;;;;;6107611;23;20441;-84
2021/08/03 03:18:44;;;;;;;12.80;8.83;;;14.50;99.80;;;;;;6116455;23;20440;-85
2021/08/03 03:21:17;;;;;;;11.03;7.33;;;14.50;99.80;;;;;;6115378;23;20431;-84
2021/08/03 03:23:48;;;;;;;17.87;7.60;;;14.50;99.80;;;;;;6109293;23;20535;-84
2021/08/03 03:26:17;;;;;;;9.80;7.03;;;14.50;99.80;;;;;;6105612;23;20443;-83
2021/08/03 03:28:46;;;;;;;12.60;6.73;;;14.50;99.80;;;;;;6110620;23;20435;-84
2021/08/03 03:31:15;;;;;;;8.20;6.27;;;14.50;99.80;;;;;;6106696;23;20467;-84
2021/08/03 03:33:46;;;;;;;9.27;6.30;;;14.50;99.80;;;;;;6098564;23;20466;-84
2021/08/03 03:36:14;;;;;;;8.37;6.30;;;14.60;99.80;;;;;;6101867;23;20451;-85
2021/08/03 03:38:45;;;;;;;14.93;6.80;;;14.60;99.80;;;;;;6110597;23;20443;-84
2021/08/03 03:41:13;;;;;;;6.90;6.20;;;14.60;99.80;;;;;;6097808;23;20427;-84
2021/08/03 03:43:41;;;;;;;10.50;7.00;;;14.60;99.80;;;;;;6092751;23;21295;-85
2021/08/03 03:46:14;;;;;;;9.50;7.30;;;14.60;99.80;;;;;;6106716;23;21112;-84
2021/08/03 03:48:49;;;;;;;11.13;6.83;;;14.60;99.80;;;;;;6110346;23;20435;-84
2021/08/03 03:51:19;;;;;;;8.70;6.57;;;14.60;99.80;;;;;;6118668;23;20443;-83
2021/08/03 03:53:51;;;;;;;10.90;7.13;;;14.60;99.80;;;;;;6118659;23;21868;-84
2021/08/03 03:56:24;;;;;;;13.60;7.90;;;14.60;99.80;;;;;;6107259;23;20783;-84
2021/08/03 03:58:58;;;;;;;12.53;7.13;;;14.60;99.80;;;;;;6109263;23;20967;-83
2021/08/03 04:01:28;;;;;;;9.97;7.93;;;14.60;99.80;;;;;;6079277;23;20442;-84
2021/08/03 04:04:01;;;;;;;9.40;7.60;;;14.60;99.80;;;;;;6128425;23;20466;-84
2021/08/03 04:06:29;;;;;;;15.03;8.43;;;14.60;99.80;;;;;;6106211;23;20990;-83
2021/08/03 04:08:57;;;;;;;11.33;7.20;;;14.60;99.80;;;;;;6092011;23;20446;-83
2021/08/03 04:11:25;;;;;;;16.87;8.17;;;14.60;99.80;;;;;;6112288;23;20438;-83
2021/08/03 04:13:56;;;;;;;9.87;7.20;;;14.50;99.80;;;;;;6112058;23;20430;-84
2021/08/03 04:16:24;;;;;;;12.70;8.57;;;14.50;99.80;;;;;;6108500;23;20434;-83
2021/08/03 04:18:52;;;;;;;11.77;8.20;;;14.50;99.80;;;;;;6117789;23;20987;-83
2021/08/03 04:21:21;;;;;;;17.67;6.97;;;14.50;99.80;;;;;;6112666;23;20445;-83
2021/08/03 04:23:49;;;;;;;8.60;7.03;;;14.50;99.80;;;;;;6118123;23;20431;-84
2021/08/03 04:26:17;;;;;;;14.83;8.03;;;14.50;99.80;;;;;;6116180;23;20442;-83
2021/08/03 04:28:45;;;;;;;11.50;7.40;;;14.60;99.80;;;;;;6102776;23;20427;-84
2021/08/03 04:31:13;;;;;;;11.40;8.37;;;14.60;99.80;;;;;;6111872;23;20442;-83
2021/08/03 04:33:41;;;;;;;8.27;6.97;;;14.60;99.80;;;;;;6097711;23;20442;-84
2021/08/03 04:36:09;;;;;;;9.77;8.10;;;14.70;99.80;;;;;;6113685;23;20441;-83
2021/08/03 04:38:38;;;;;;;12.07;7.40;;;14.70;99.80;;;;;;6113230;23;20439;-84
2021/08/03 04:41:06;;;;;;;11.67;7.43;;;14.80;99.80;;;;;;6105311;23;21324;-83
2021/08/03 04:43:34;;;;;;;16.43;9.23;;;14.80;99.80;;;;;;6097709;23;20640;-84
2021/08/03 04:46:02;;;;;;;13.90;9.50;;;14.90;99.80;;;;;;6107332;23;20435;-83
2021/08/03 04:48:30;;;;;;;14.80;9.43;;;14.90;99.80;;;;;;6114196;23;20505;-83
2021/08/03 04:50:58;;;;;;;18.00;9.67;;;14.90;99.80;;;;;;6116812;23;20924;-84
2021/08/03 04:53:26;;;;;;;14.70;10.23;;;14.90;99.80;;;;;;6118777;23;20434;-84
2021/08/03 04:55:55;;;;;;;17.47;10.30;;;14.90;99.80;;;;;;6118680;23;20438;-83
2021/08/03 04:58:23;;;;;;;18.90;10.40;;;14.90;99.80;;;;;;6114978;23;20429;-83
2021/08/03 05:00:52;;;;;;;20.37;10.43;;;14.90;99.80;;;;;;6093397;23;20570;-82
2021/08/03 05:03:20;;;;;;;16.30;9.77;;;14.90;99.80;;;;;;6111518;23;21058;-83
2021/08/03 05:05:48;;;;;;;15.50;9.17;;;14.90;99.80;;;;;;6116782;23;20447;-82
2021/08/03 05:08:16;;;;;;;13.67;9.20;;;15.00;99.80;;;;;;6109627;23;20453;-83
2021/08/03 05:10:44;;;;;;;13.90;8.80;;;15.00;99.80;;;;;;6101295;23;20520;-84
2021/08/03 05:13:14;;;;;;;13.50;8.03;;;15.00;99.80;;;;;;6110100;23;20779;-83
2021/08/03 05:15:41;;;;;;;13.20;8.63;;;15.10;99.80;;;;;;6096477;23;21005;-84
2021/08/03 05:18:09;;;;;;;11.40;7.90;;;15.10;99.80;;;;;;6108459;23;20444;-83
2021/08/03 05:20:37;;;;;;;12.07;8.03;;;15.10;99.80;;;;;;6109111;23;20439;-83
2021/08/03 05:23:05;;;;;;;11.20;7.03;;;15.10;99.80;;;;;;6108219;23;20447;-84
2021/08/03 05:25:33;;;;;;;10.17;6.90;;;15.10;99.80;;;;;;6102659;23;20787;-82
2021/08/03 05:28:01;;;;;;;10.07;6.80;;;15.10;99.80;;;;;;6107807;23;20502;-83
2021/08/03 05:30:31;;;;;;;10.00;7.50;;;15.20;99.80;;;;;;6109135;23;20445;-83
2021/08/03 05:32:58;;;;;;;9.47;6.93;;;15.20;99.80;;;;;;6106060;23;20942;-83
2021/08/03 05:35:26;;;;;;;8.43;7.27;;;15.20;99.80;;;;;;6117254;23;21002;-84
2021/08/03 05:37:54;;;;;;;9.07;7.00;;;15.20;99.80;;;;;;6119872;23;20496;-84
2021/08/03 05:40:22;;;;;;;13.73;7.53;;;15.30;99.80;;;;;;6105639;23;20444;-85
2021/08/03 05:42:50;;;;;;;24.37;7.90;;;15.30;99.80;;;;;;6110995;23;20450;-84
2021/08/03 05:45:18;;;;;;;9.30;6.93;;;15.30;99.80;;;;;;6098718;23;20445;-83
2021/08/03 05:47:47;;;;;;;7.00;5.77;;;15.40;99.80;;;;;;6112981;23;20443;-83
2021/08/03 05:50:15;;;;;;;12.10;7.10;;;15.50;99.80;;;;;;6111009;23;20997;-84
2021/08/03 05:52:43;;;;;;;11.17;7.07;;;15.50;99.80;;;;;;6099812;23;20442;-83
2021/08/03 05:55:12;;;;;;;8.90;7.47;;;15.60;99.80;;;;;;6107491;23;20441;-83
2021/08/03 05:57:41;;;;;;;8.73;6.90;;;15.60;99.80;;;;;;6113785;23;20443;-83
2021/08/03 06:00:10;;;;;;;9.73;6.97;;;15.60;99.80;;;;;;6079129;23;20443;-83
2021/08/03 06:02:38;;;;;;;10.50;6.77;;;15.50;99.80;;;;;;6124461;23;20779;-83
2021/08/03 06:05:09;;;;;;;13.33;7.27;;;15.60;99.80;;;;;;6113900;23;20441;-84
2021/08/03 06:07:43;;;;;;;9.20;7.30;;;15.50;99.80;;;;;;6115099;23;20794;-86
2021/08/03 06:10:13;;;;;;;9.07;7.03;;;15.50;99.80;;;;;;6113397;23;20473;-86
2021/08/03 06:12:46;;;;;;;7.40;6.53;;;15.60;99.80;;;;;;6104776;23;20439;-85
2021/08/03 06:15:14;;;;;;;8.37;6.70;;;15.60;99.80;;;;;;6098656;23;20459;-85
2021/08/03 06:17:47;;;;;;;11.27;7.53;;;15.70;99.80;;;;;;6111865;23;20445;-83
2021/08/03 06:20:16;;;;;;;11.00;7.90;;;15.90;99.80;;;;;;6114294;23;20466;-85
2021/08/03 06:22:45;;;;;;;11.20;7.63;;;16.00;99.80;;;;;;6100949;23;20442;-85
2021/08/03 06:25:15;;;;;;;14.13;7.43;;;16.10;99.80;;;;;;6102934;23;20431;-85
2021/08/03 06:27:44;;;;;;;12.87;7.83;;;16.20;99.80;;;;;;6106835;23;20436;-85
2021/08/03 06:30:13;;;;;;;10.60;6.67;;;16.40;99.80;;;;;;6103759;23;20967;-85
2021/08/03 06:32:44;;;;;;;7.03;6.33;;;16.60;99.80;;;;;;6104797;23;21092;-85
2021/08/03 06:35:16;;;;;;;7.87;6.83;;;16.60;99.80;;;;;;6116317;23;20512;-86
2021/08/03 06:37:45;;;;;;;7.33;6.20;;;16.60;99.80;;;;;;6116827;23;20496;-85
2021/08/03 06:40:13;;;;;;;8.33;7.00;;;16.60;99.80;;;;;;6112809;23;20439;-85
2021/08/03 06:42:48;;;;;;;9.40;7.33;;;16.70;99.80;;;;;;6112508;23;20435;-85
2021/08/03 06:45:19;;;;;;;8.50;7.07;;;16.70;99.80;;;;;;6103276;23;20868;-85
2021/08/03 06:47:53;;;;;;;10.07;7.30;;;16.80;99.80;;;;;;6108453;23;20448;-85
2021/08/03 06:50:29;;;;;;;8.07;6.93;;;16.90;99.80;;;;;;6116854;23;20436;-85
2021/08/03 06:52:58;;;;;;;7.63;6.80;;;16.90;99.80;;;;;;6111170;23;20439;-85
2021/08/03 06:55:30;;;;;;;9.20;7.33;;;17.00;99.80;;;;;;6104745;23;20442;-85
2021/08/03 06:58:02;;;;;;;8.33;7.37;;;17.10;99.80;;;;;;6094325;23;20446;-85
2021/08/03 07:00:38;;;;;;;8.43;6.83;;;17.20;99.80;;;;;;6087202;23;20438;-85
2021/08/03 07:03:08;;;;;;;7.60;6.33;;;17.40;99.80;;;;;;6116178;23;20524;-85
2021/08/03 07:05:44;;;;;;;7.73;6.87;;;17.50;99.80;;;;;;6086522;23;20470;-85
2021/08/03 07:08:15;;;;;;;8.07;7.27;;;17.70;99.80;;;;;;6104461;23;20910;-85
2021/08/03 07:10:45;;;;;;;8.30;6.40;;;17.80;99.80;;;;;;6097813;23;20474;-84
2021/08/03 07:13:13;;;;;;;9.00;7.33;;;17.80;99.80;;;;;;6108395;23;20778;-85
2021/08/03 07:15:42;;;;;;;9.77;6.00;;;17.80;99.80;;;;;;6097949;23;20446;-85
2021/08/03 07:18:11;;;;;;;7.50;6.70;;;17.80;99.80;;;;;;6111364;23;21032;-85
2021/08/03 07:20:42;;;;;;;15.63;7.37;;;17.90;99.80;;;;;;6116964;23;20830;-85
2021/08/03 07:23:12;;;;;;;7.50;6.40;;;17.90;99.80;;;;;;6112163;23;20448;-85
2021/08/03 07:25:40;;;;;;;7.57;5.70;;;18.00;99.80;;;;;;6108144;23;20438;-85
2021/08/03 07:28:08;;;;;;;9.97;6.57;;;17.90;99.80;;;;;;6106813;23;20434;-85
2021/08/03 07:30:36;;;;;;;7.80;6.47;;;17.90;99.80;;;;;;6091905;23;21219;-85
2021/08/03 07:33:04;;;;;;;7.47;6.47;;;17.80;99.80;;;;;;6108091;23;20449;-85
2021/08/03 07:35:32;;;;;;;9.30;8.30;;;17.80;99.80;;;;;;6110985;23;20450;-85
2021/08/03 07:38:02;;;;;;;8.67;7.47;;;17.90;99.80;;;;;;6090247;23;20437;-85
2021/08/03 07:40:29;;;;;;;11.10;7.50;;;18.20;99.80;;;;;;6097803;23;20444;-86
2021/08/03 07:42:57;;;;;;;8.33;6.80;;;18.20;99.80;;;;;;6102557;23;20767;-85
2021/08/03 07:45:25;;;;;;;10.70;7.67;;;18.40;99.80;;;;;;6108427;23;20441;-86
2021/08/03 07:47:53;;;;;;;8.47;7.37;;;18.50;99.80;;;;;;6113818;23;20443;-85
2021/08/03 07:50:21;;;;;;;9.33;8.30;;;18.60;99.80;;;;;;6112749;23;20443;-86
2021/08/03 07:52:49;;;;;;;9.13;8.23;;;18.80;99.80;;;;;;6117395;23;20438;-85
2021/08/03 07:55:19;;;;;;;11.57;7.50;;;18.80;99.80;;;;;;6116098;23;20465;-86
2021/08/03 07:57:47;;;;;;;6.97;6.30;;;18.80;99.80;;;;;;6099381;23;20518;-86
2021/08/03 08:00:16;;;;;;;11.87;7.50;;;18.70;99.80;;;;;;6087190;23;20439;-85
2021/08/03 08:02:44;;;;;;;7.80;6.57;;;18.70;99.80;;;;;;6112955;23;20463;-86
2021/08/03 08:05:14;;;;;;;7.03;6.20;;;18.60;99.80;;;;;;6115286;23;20853;-86
2021/08/03 08:07:42;;;;;;;7.63;6.30;;;18.40;99.80;;;;;;6110272;23;20966;-85
2021/08/03 08:10:11;;;;;;;7.60;6.77;;;18.60;99.80;;;;;;6111545;23;20438;-85
2021/08/03 08:12:40;;;;;;;10.10;6.50;;;18.70;99.80;;;;;;6098258;23;20438;-85
2021/08/03 08:15:10;;;;;;;5.73;5.20;;;18.90;99.80;;;;;;6077384;23;20439;-85
2021/08/03 08:17:38;;;;;;;5.97;5.37;;;19.30;99.80;;;;;;6089778;23;20454;-85
2021/08/03 08:20:12;;;;;;;7.13;6.17;;;19.60;99.80;;;;;;6127282;23;20452;-86
2021/08/03 08:22:41;;;;;;;6.70;5.87;;;20.00;99.80;;;;;;6114482;23;20903;-85
2021/08/03 08:25:11;;;;;;;9.77;6.60;;;20.00;99.80;;;;;;6112507;23;20493;-87
2021/08/03 08:27:41;;;;;;;6.20;5.07;;;20.50;99.80;;;;;;6101992;23;20443;-86
2021/08/03 08:30:10;;;;;;;6.27;5.67;;;20.80;99.80;;;;;;6103528;23;20443;-86
2021/08/03 08:32:40;;;;;;;7.50;6.80;;;20.80;99.80;;;;;;6098707;23;20453;-87
2021/08/03 08:35:28;;;;;;;10.80;7.97;;;20.80;99.80;;;;;;6111310;23;20908;-86
2021/08/03 08:37:56;;;;;;;8.33;5.90;;;20.30;99.80;;;;;;6101652;23;21319;-87
2021/08/03 08:40:24;;;;;;;9.80;8.00;;;20.10;99.80;;;;;;6088677;23;20518;-86
2021/08/03 08:42:54;;;;;;;8.67;7.77;;;20.10;99.80;;;;;;6091638;23;20433;-86
2021/08/03 08:45:22;;;;;;;10.70;8.40;;;19.90;99.80;;;;;;6080566;23;20951;-88
2021/08/03 08:47:50;;;;;;;12.80;8.77;;;19.80;99.80;;;;;;6095227;23;21195;-87
2021/08/03 08:50:21;;;;;;;9.30;8.30;;;19.70;99.80;;;;;;6105408;23;20442;-87
2021/08/03 08:53:13;;;;;;;9.93;8.93;;;19.30;99.80;;;;;;6084160;23;20439;-87
2021/08/03 08:55:55;;;;;;;11.37;8.70;;;18.90;99.80;;;;;;6095271;23;20442;-86
2021/08/03 08:58:24;;;;;;;12.57;8.43;;;18.90;99.80;;;;;;6104375;23;20435;-88
2021/08/03 09:00:52;;;;;;;12.70;9.00;;;18.60;99.80;;;;;;6073228;23;20435;-87
2021/08/03 09:03:21;;;;;;;9.73;8.73;;;17.90;99.80;;;;;;6109112;23;20496;-87
2021/08/03 09:06:00;;;;;;;9.97;8.60;;;17.90;99.80;;;;;;6122193;23;20465;-87
2021/08/03 09:08:36;;;;;;;9.40;8.47;;;17.70;99.80;;;;;;6114934;23;20510;-86
2021/08/03 09:11:12;;;;;;;11.13;8.63;;;17.60;99.80;;;;;;6088520;23;20445;-87
2021/08/03 09:13:53;;;;;;;12.93;8.33;;;17.60;99.80;;;;;;6099887;23;20492;-88
2021/08/03 09:16:22;;;;;;;8.50;7.30;;;17.70;99.80;;;;;;6086223;23;20548;-88
2021/08/03 09:18:52;;;;;;;8.10;7.20;;;17.60;99.80;;;;;;6104631;23;20467;-88
2021/08/03 09:21:22;;;;;;;10.73;9.20;;;17.60;99.80;;;;;;6090772;23;20943;-88
2021/08/03 09:23:51;;;;;;;8.57;7.53;;;17.60;99.80;;;;;;6084535;23;20444;-86
2021/08/03 09:26:20;;;;;;;14.23;8.70;;;17.60;99.80;;;;;;6095805;23;20438;-87
2021/08/03 09:29:02;;;;;;;10.43;7.93;;;17.70;99.80;;;;;;6094489;23;20438;-88
2021/08/03 09:31:31;;;;;;;11.47;8.67;;;17.80;99.80;;;;;;6101085;23;20434;-87
2021/08/03 09:34:00;;;;;;;12.93;8.43;;;17.90;99.80;;;;;;6116321;23;20445;-87
2021/08/03 09:36:45;;;;;;;11.57;9.13;;;18.30;99.80;;;;;;6111370;23;20442;-87
2021/08/03 09:39:35;;;;;;;10.83;9.07;;;18.30;99.80;;;;;;6117444;23;20437;-86
2021/08/03 09:42:07;;;;;;;9.43;8.40;;;18.60;99.80;;;;;;6103177;23;20987;-88
2021/08/03 09:44:37;;;;;;;10.43;8.90;;;18.80;99.80;;;;;;6103855;23;21087;-89
2021/08/03 09:47:05;;;;;;;9.03;8.07;;;18.90;99.80;;;;;;6097743;23;20452;-87
2021/08/03 09:49:35;;;;;;;8.60;7.77;;;18.90;99.80;;;;;;6115490;23;20447;-87
2021/08/03 09:52:08;;;;;;;7.33;6.63;;;18.90;99.80;;;;;;6105225;23;20438;-87
2021/08/03 09:54:37;;;;;;;9.57;7.50;;;18.80;99.80;;;;;;6111138;23;20435;-88
2021/08/03 09:57:17;;;;;;;10.07;7.80;;;18.70;99.80;;;;;;6108030;23;20442;-87
2021/08/03 09:59:47;;;;;;;6.73;5.87;;;18.90;99.80;;;;;;6080973;23;20441;-87
2021/08/03 10:02:18;;;;;;;5.57;5.07;;;19.00;99.80;;;;;;6095975;23;20435;-87
2021/08/03 10:04:49;;;;;;;6.50;5.77;;;19.10;99.80;;;;;;6113754;23;20999;-89
2021/08/03 10:07:18;;;;;;;5.50;5.00;;;19.40;99.80;;;;;;6116997;23;20434;-88
2021/08/03 10:09:48;;;;;;;7.00;5.67;;;19.40;99.80;;;;;;6115446;23;20437;-88
2021/08/03 10:12:17;;;;;;;8.30;5.40;;;19.60;99.80;;;;;;6109298;23;20497;-87
2021/08/03 10:14:47;;;;;;;5.30;4.80;;;19.70;99.80;;;;;;6090474;23;20531;-88
2021/08/03 10:17:15;;;;;;;5.00;4.60;;;19.70;99.80;;;;;;6099074;23;21100;-86
2021/08/03 10:19:44;;;;;;;3.77;3.57;;;19.60;99.80;;;;;;6114283;23;20787;-87
2021/08/03 10:22:23;;;;;;;4.10;3.70;;;19.50;99.80;;;;;;6107452;23;20438;-87
2021/08/03 10:24:57;;;;;;;6.60;5.07;;;19.50;99.80;;;;;;6094294;23;20438;-87
2021/08/03 10:27:41;;;;;;;4.20;3.80;;;19.20;99.80;;;;;;6107990;23;20513;-86
2021/08/03 10:30:37;;;;;;;5.33;4.90;;;19.20;99.80;;;;;;6103184;23;20516;-87
2021/08/03 10:33:38;;;;;;;4.33;4.00;;;18.60;99.80;;;;;;6105026;23;20426;-87
2021/08/03 10:36:07;;;;;;;4.40;4.00;;;18.30;99.80;;;;;;6105340;23;20426;-87
2021/08/03 10:38:35;;;;;;;3.80;3.50;;;18.40;99.80;;;;;;6100186;23;20435;-86
2021/08/03 10:41:05;;;;;;;4.77;4.03;;;18.20;99.80;;;;;;6081880;23;20468;-86
2021/08/03 10:43:54;;;;;;;7.17;4.50;;;18.00;99.80;;;;;;6097142;23;20478;-87
2021/08/03 10:46:42;;;;;;;5.07;4.67;;;17.80;99.80;;;;;;6084292;23;20447;-87
2021/08/03 10:49:12;;;;;;;4.80;4.40;;;17.60;99.80;;;;;;6125526;23;20511;-87
2021/08/03 10:51:43;;;;;;;5.63;5.13;;;17.60;99.80;;;;;;6114581;23;20524;-87
2021/08/03 10:54:13;;;;;;;8.17;5.60;;;17.70;99.80;;;;;;6102537;23;20469;-88
2021/08/03 10:57:18;;;;;;;6.17;5.57;;;17.80;99.80;;;;;;6101847;23;20449;-88
2021/08/03 10:59:58;;;;;;;5.30;4.80;;;18.20;99.80;;;;;;6086322;23;20958;-87
2021/08/03 11:03:00;;;;;;;6.30;4.33;;;18.60;99.80;;;;;;6092365;23;21104;-87
2021/08/03 11:05:33;;;;;;;5.73;4.97;;;19.00;99.80;;;;;;5995343;23;20530;-87
2021/08/03 11:08:34;;;;;;;3.60;3.30;;;19.30;99.80;;;;;;6078725;23;20474;-87
2021/08/03 11:11:07;;;;;;;4.00;3.13;;;19.70;99.80;;;;;;6081763;23;20732;-87
2021/08/03 11:13:37;;;;;;;2.93;2.63;;;19.80;99.80;;;;;;6091459;23;21022;-86
2021/08/03 11:16:11;;;;;;;2.27;2.17;;;19.70;99.80;;;;;;6099498;23;20475;-87
2021/08/03 11:18:42;;;;;;;1.70;1.60;;;19.60;99.80;;;;;;6114645;23;21113;-88
2021/08/03 11:21:14;;;;;;;2.17;1.60;;;19.50;99.80;;;;;;6113368;23;20506;-87
2021/08/03 11:24:04;;;;;;;2.73;1.87;;;19.30;99.80;;;;;;6114302;23;20582;-88
2021/08/03 11:26:35;;;;;;;2.07;1.97;;;19.10;99.80;;;;;;6095736;23;20457;-88
2021/08/03 11:29:10;;;;;;;3.23;2.73;;;19.00;99.80;;;;;;6107360;23;22575;-88
2021/08/03 11:31:43;;;;;;;5.83;2.20;;;18.80;99.80;;;;;;6096034;23;20444;-88
2021/08/03 11:34:15;;;;;;;2.10;1.90;;;18.60;99.80;;;;;;6111376;23;20438;-89
2021/08/03 11:37:11;;;;;;;2.37;2.27;;;18.40;99.80;;;;;;6085429;23;20446;-87
2021/08/03 11:39:43;;;;;;;1.93;1.80;;;18.20;99.80;;;;;;6109713;23;20429;-88
2021/08/03 11:42:13;;;;;;;2.50;2.30;;;18.00;99.80;;;;;;6100811;23;20433;-88
2021/08/03 11:44:43;;;;;;;2.47;2.27;;;17.90;99.80;;;;;;6099752;23;20442;-87
2021/08/03 11:47:14;;;;;;;3.00;2.67;;;17.70;99.80;;;;;;6106096;23;20452;-86
2021/08/03 11:49:46;;;;;;;3.30;2.40;;;17.50;99.80;;;;;;6114584;23;20435;-86
2021/08/03 11:52:20;;;;;;;3.10;2.80;;;17.50;99.80;;;;;;6117138;23;20490;-86
2021/08/03 11:54:50;;;;;;;2.63;2.43;;;17.40;99.80;;;;;;6116140;23;20440;-86
2021/08/03 11:57:27;;;;;;;2.27;2.17;;;17.40;99.80;;;;;;6107211;23;20446;-87
2021/08/03 12:00:13;;;;;;;2.23;2.03;;;17.60;99.80;;;;;;6096656;23;20442;-86
2021/08/03 12:02:45;;;;;;;2.27;2.07;;;17.70;99.80;;;;;;6082352;23;20738;-89
2021/08/03 12:05:22;;;;;;;2.60;2.40;;;17.80;99.80;;;;;;6113838;23;20446;-87
2021/08/03 12:07:53;;;;;;;2.13;1.93;;;17.90;99.80;;;;;;6100495;23;20444;-86
2021/08/03 12:10:23;;;;;;;2.60;2.40;;;18.00;99.80;;;;;;6098909;23;20457;-86
2021/08/03 12:12:52;;;;;;;1.70;1.60;;;18.30;99.80;;;;;;6102104;23;20446;-87
2021/08/03 12:15:21;;;;;;;4.23;1.57;;;18.50;99.80;;;;;;6110674;23;20960;-87
2021/08/03 12:18:01;;;;;;;2.07;1.70;;;18.60;99.80;;;;;;6106394;23;20523;-86
2021/08/03 12:20:34;;;;;;;1.80;1.70;;;18.60;99.80;;;;;;6103201;23;20444;-87
2021/08/03 12:23:11;;;;;;;1.60;1.50;;;18.40;99.80;;;;;;6107219;23;21006;-84
2021/08/03 12:25:51;;;;;;;3.10;1.80;;;18.70;99.80;;;;;;6097601;23;20442;-84
2021/08/03 12:28:38;;;;;;;3.97;2.20;;;18.80;99.80;;;;;;6096563;23;20426;-84
2021/08/03 12:31:18;;;;;;;2.17;2.07;;;21.30;99.80;;;;;;6105494;23;20453;-84
2021/08/03 12:33:46;;;;;;;1.80;1.70;;;23.50;99.80;;;;;;6111012;23;21152;-84
2021/08/03 12:36:17;;;;;;;1.70;1.60;;;25.80;95.20;;;;;;6116354;23;20939;-84
2021/08/03 12:39:04;;;;;;;1.73;1.63;;;27.50;90.40;;;;;;6102451;23;20452;-85
2021/08/03 12:41:32;;;;;;;1.60;1.50;;;29.20;87.00;;;;;;6090969;23;20474;-84
2021/08/03 12:44:00;;;;;;;1.97;1.87;;;28.40;84.30;;;;;;6090029;23;20993;-84
2021/08/03 12:46:35;;;;;;;1.50;1.40;;;26.50;91.90;;;;;;6083820;23;20438;-84
2021/08/03 12:49:04;;;;;;;3.73;1.90;;;25.30;94.60;;;;;;6109334;23;20434;-84
2021/08/03 12:51:35;;;;;;;2.17;1.70;;;24.60;95.30;;;;;;6079821;23;20933;-84
2021/08/03 12:54:14;;;;;;;2.43;2.33;;;24.60;99.30;;;;;;6066405;23;20447;-84
2021/08/03 12:56:56;;;;;;;6.57;2.00;;;24.30;98.90;;;;;;6088459;23;20542;-84
2021/08/03 12:59:41;;;;;;;1.43;1.33;;;24.40;95.50;;;;;;6098984;23;20440;-84
2021/08/03 13:02:12;;;;;;;2.63;2.10;;;24.10;97.10;;;;;;6085556;23;20451;-83
2021/08/03 13:04:40;;;;;;;2.30;1.93;;;24.10;99.20;;;;;;6107412;23;20446;-84
2021/08/03 13:07:10;;;;;;;2.00;1.90;;;24.50;97.30;;;;;;6113749;23;20505;-85